sensor_id;sensor_type;location;lat;lon;timestamp;P1;durP1;ratioP1;P2;durP2;ratioP2
15077;SDS011;7638;49.760;8.646;2024-01-30T00:00:11;4.43;;;3.33;;
15077;SDS011;7638;49.760;8.646;2024-01-30T00:02:37;4.50;;;3.37;;
15077;SDS011;7638;49.760;8.646;2024-01-30T00:05:03;5.23;;;3.20;;
15077;SDS011;7638;49.760;8.646;2024-01-30T00:07:29;6.03;;;3.13;;
15077;SDS011;7638;49.760;8.646;2024-01-30T00:09:55;5.47;;;4.30;;
15077;SDS011;7638;49.760;8.646;2024-01-30T00:12:21;4.57;;;3.47;;
15077;SDS011;7638;49.760;8.646;2024-01-30T00:14:47;6.27;;;3.60;;
15077;SDS011;7638;49.760;8.646;2024-01-30T00:17:13;6.37;;;3.67;;
15077;SDS011;7638;49.760;8.646;2024-01-30T00:19:39;6.83;;;4.00;;
15077;SDS011;7638;49.760;8.646;2024-01-30T00:22:05;4.53;;;3.67;;
15077;SDS011;7638;49.760;8.646;2024-01-30T00:24:32;5.87;;;3.87;;
15077;SDS011;7638;49.760;8.646;2024-01-30T00:26:58;6.80;;;3.87;;
15077;SDS011;7638;49.760;8.646;2024-01-30T00:29:25;4.77;;;3.20;;
15077;SDS011;7638;49.760;8.646;2024-01-30T00:31:55;9.00;;;4.13;;
15077;SDS011;7638;49.760;8.646;2024-01-30T00:34:21;7.60;;;3.53;;
15077;SDS011;7638;49.760;8.646;2024-01-30T00:36:47;6.20;;;3.53;;
15077;SDS011;7638;49.760;8.646;2024-01-30T00:39:13;4.87;;;3.63;;
15077;SDS011;7638;49.760;8.646;2024-01-30T00:41:40;5.53;;;4.00;;
15077;SDS011;7638;49.760;8.646;2024-01-30T00:44:06;4.60;;;3.73;;
15077;SDS011;7638;49.760;8.646;2024-01-30T00:46:32;6.70;;;3.33;;
15077;SDS011;7638;49.760;8.646;2024-01-30T00:48:58;5.33;;;3.27;;
15077;SDS011;7638;49.760;8.646;2024-01-30T00:51:24;4.63;;;3.83;;
15077;SDS011;7638;49.760;8.646;2024-01-30T00:53:50;5.73;;;4.23;;
15077;SDS011;7638;49.760;8.646;2024-01-30T00:56:16;4.60;;;3.77;;
15077;SDS011;7638;49.760;8.646;2024-01-30T00:58:43;5.40;;;3.70;;
15077;SDS011;7638;49.760;8.646;2024-01-30T01:01:09;4.73;;;4.07;;
15077;SDS011;7638;49.760;8.646;2024-01-30T01:03:35;8.17;;;4.17;;
15077;SDS011;7638;49.760;8.646;2024-01-30T01:06:01;6.87;;;3.40;;
15077;SDS011;7638;49.760;8.646;2024-01-30T01:08:27;5.00;;;3.50;;
15077;SDS011;7638;49.760;8.646;2024-01-30T01:10:53;6.20;;;3.83;;
15077;SDS011;7638;49.760;8.646;2024-01-30T01:13:19;5.43;;;3.57;;
15077;SDS011;7638;49.760;8.646;2024-01-30T01:15:45;8.00;;;4.63;;
15077;SDS011;7638;49.760;8.646;2024-01-30T01:18:11;5.03;;;3.10;;
15077;SDS011;7638;49.760;8.646;2024-01-30T01:20:37;6.10;;;4.27;;
15077;SDS011;7638;49.760;8.646;2024-01-30T01:23:02;5.60;;;3.43;;
15077;SDS011;7638;49.760;8.646;2024-01-30T01:25:28;5.07;;;3.63;;
15077;SDS011;7638;49.760;8.646;2024-01-30T01:27:54;4.77;;;3.67;;
15077;SDS011;7638;49.760;8.646;2024-01-30T01:30:21;4.53;;;3.63;;
15077;SDS011;7638;49.760;8.646;2024-01-30T01:32:48;5.10;;;3.57;;
15077;SDS011;7638;49.760;8.646;2024-01-30T01:35:26;5.13;;;4.10;;
15077;SDS011;7638;49.760;8.646;2024-01-30T01:37:52;8.07;;;4.03;;
15077;SDS011;7638;49.760;8.646;2024-01-30T01:40:24;5.90;;;3.47;;
15077;SDS011;7638;49.760;8.646;2024-01-30T01:42:50;6.37;;;4.93;;
15077;SDS011;7638;49.760;8.646;2024-01-30T01:45:17;7.10;;;3.40;;
15077;SDS011;7638;49.760;8.646;2024-01-30T01:47:43;6.20;;;3.33;;
15077;SDS011;7638;49.760;8.646;2024-01-30T01:50:10;7.13;;;4.33;;
15077;SDS011;7638;49.760;8.646;2024-01-30T01:52:37;3.50;;;3.03;;
15077;SDS011;7638;49.760;8.646;2024-01-30T01:55:04;5.57;;;3.73;;
15077;SDS011;7638;49.760;8.646;2024-01-30T01:57:30;6.70;;;3.77;;
15077;SDS011;7638;49.760;8.646;2024-01-30T01:59:56;6.60;;;4.20;;
15077;SDS011;7638;49.760;8.646;2024-01-30T02:02:22;5.67;;;3.50;;
15077;SDS011;7638;49.760;8.646;2024-01-30T02:04:49;5.37;;;3.53;;
15077;SDS011;7638;49.760;8.646;2024-01-30T02:07:15;4.43;;;3.40;;
15077;SDS011;7638;49.760;8.646;2024-01-30T02:09:41;7.00;;;4.00;;
15077;SDS011;7638;49.760;8.646;2024-01-30T02:12:07;4.43;;;3.30;;
15077;SDS011;7638;49.760;8.646;2024-01-30T02:14:33;7.30;;;4.10;;
15077;SDS011;7638;49.760;8.646;2024-01-30T02:17:09;6.83;;;3.97;;
15077;SDS011;7638;49.760;8.646;2024-01-30T02:19:35;4.63;;;3.33;;
15077;SDS011;7638;49.760;8.646;2024-01-30T02:22:01;5.40;;;4.07;;
15077;SDS011;7638;49.760;8.646;2024-01-30T02:24:27;5.90;;;3.63;;
15077;SDS011;7638;49.760;8.646;2024-01-30T02:26:53;5.37;;;3.83;;
15077;SDS011;7638;49.760;8.646;2024-01-30T02:29:19;6.93;;;4.37;;
15077;SDS011;7638;49.760;8.646;2024-01-30T02:31:45;9.00;;;4.47;;
15077;SDS011;7638;49.760;8.646;2024-01-30T02:34:11;5.90;;;4.53;;
15077;SDS011;7638;49.760;8.646;2024-01-30T02:36:37;5.70;;;4.33;;
15077;SDS011;7638;49.760;8.646;2024-01-30T02:39:03;7.97;;;4.13;;
15077;SDS011;7638;49.760;8.646;2024-01-30T02:41:30;9.03;;;4.57;;
15077;SDS011;7638;49.760;8.646;2024-01-30T02:43:56;7.63;;;4.97;;
15077;SDS011;7638;49.760;8.646;2024-01-30T02:46:22;6.50;;;4.93;;
15077;SDS011;7638;49.760;8.646;2024-01-30T02:48:47;10.13;;;5.10;;
15077;SDS011;7638;49.760;8.646;2024-01-30T02:51:13;6.83;;;4.70;;
15077;SDS011;7638;49.760;8.646;2024-01-30T02:53:39;8.73;;;4.73;;
15077;SDS011;7638;49.760;8.646;2024-01-30T02:56:05;4.83;;;3.97;;
15077;SDS011;7638;49.760;8.646;2024-01-30T02:58:34;8.43;;;4.93;;
15077;SDS011;7638;49.760;8.646;2024-01-30T03:01:00;9.23;;;5.67;;
15077;SDS011;7638;49.760;8.646;2024-01-30T03:03:26;8.50;;;5.57;;
15077;SDS011;7638;49.760;8.646;2024-01-30T03:05:52;7.33;;;4.17;;
15077;SDS011;7638;49.760;8.646;2024-01-30T03:08:19;6.30;;;4.77;;
15077;SDS011;7638;49.760;8.646;2024-01-30T03:10:45;6.43;;;4.93;;
15077;SDS011;7638;49.760;8.646;2024-01-30T03:13:11;8.50;;;5.27;;
15077;SDS011;7638;49.760;8.646;2024-01-30T03:15:37;13.70;;;5.70;;
15077;SDS011;7638;49.760;8.646;2024-01-30T03:18:03;7.53;;;4.47;;
15077;SDS011;7638;49.760;8.646;2024-01-30T03:20:29;8.17;;;4.70;;
15077;SDS011;7638;49.760;8.646;2024-01-30T03:22:56;7.27;;;4.73;;
15077;SDS011;7638;49.760;8.646;2024-01-30T03:25:22;6.47;;;3.97;;
15077;SDS011;7638;49.760;8.646;2024-01-30T03:27:48;6.37;;;4.50;;
15077;SDS011;7638;49.760;8.646;2024-01-30T03:30:14;8.70;;;5.10;;
15077;SDS011;7638;49.760;8.646;2024-01-30T03:32:40;7.40;;;4.67;;
15077;SDS011;7638;49.760;8.646;2024-01-30T03:35:06;6.83;;;5.00;;
15077;SDS011;7638;49.760;8.646;2024-01-30T03:37:32;9.07;;;5.03;;
15077;SDS011;7638;49.760;8.646;2024-01-30T03:39:58;7.73;;;4.50;;
15077;SDS011;7638;49.760;8.646;2024-01-30T03:42:24;7.97;;;4.67;;
15077;SDS011;7638;49.760;8.646;2024-01-30T03:44:50;5.70;;;5.13;;
15077;SDS011;7638;49.760;8.646;2024-01-30T03:47:18;6.60;;;4.80;;
15077;SDS011;7638;49.760;8.646;2024-01-30T03:49:45;6.40;;;4.60;;
15077;SDS011;7638;49.760;8.646;2024-01-30T03:52:11;5.87;;;4.50;;
15077;SDS011;7638;49.760;8.646;2024-01-30T03:54:37;5.53;;;3.97;;
15077;SDS011;7638;49.760;8.646;2024-01-30T03:57:03;7.27;;;4.73;;
15077;SDS011;7638;49.760;8.646;2024-01-30T03:59:29;8.13;;;5.17;;
15077;SDS011;7638;49.760;8.646;2024-01-30T04:01:55;7.43;;;4.67;;
15077;SDS011;7638;49.760;8.646;2024-01-30T04:04:21;10.13;;;4.73;;
15077;SDS011;7638;49.760;8.646;2024-01-30T04:06:48;5.97;;;4.20;;
15077;SDS011;7638;49.760;8.646;2024-01-30T04:09:14;10.90;;;4.63;;
15077;SDS011;7638;49.760;8.646;2024-01-30T04:11:40;7.37;;;5.13;;
15077;SDS011;7638;49.760;8.646;2024-01-30T04:14:07;7.90;;;5.00;;
15077;SDS011;7638;49.760;8.646;2024-01-30T04:16:32;5.87;;;4.27;;
15077;SDS011;7638;49.760;8.646;2024-01-30T04:18:58;8.33;;;5.17;;
15077;SDS011;7638;49.760;8.646;2024-01-30T04:21:24;6.67;;;4.93;;
15077;SDS011;7638;49.760;8.646;2024-01-30T04:23:50;8.97;;;5.17;;
15077;SDS011;7638;49.760;8.646;2024-01-30T04:26:17;8.17;;;5.00;;
15077;SDS011;7638;49.760;8.646;2024-01-30T04:28:44;8.23;;;5.43;;
15077;SDS011;7638;49.760;8.646;2024-01-30T04:31:10;10.03;;;5.07;;
15077;SDS011;7638;49.760;8.646;2024-01-30T04:33:36;7.43;;;5.20;;
15077;SDS011;7638;49.760;8.646;2024-01-30T04:36:02;6.50;;;4.90;;
15077;SDS011;7638;49.760;8.646;2024-01-30T04:38:28;10.63;;;5.70;;
15077;SDS011;7638;49.760;8.646;2024-01-30T04:40:54;9.80;;;5.30;;
15077;SDS011;7638;49.760;8.646;2024-01-30T04:43:20;6.17;;;5.40;;
15077;SDS011;7638;49.760;8.646;2024-01-30T04:45:46;7.93;;;5.10;;
15077;SDS011;7638;49.760;8.646;2024-01-30T04:48:12;7.30;;;5.00;;
15077;SDS011;7638;49.760;8.646;2024-01-30T04:50:38;7.57;;;4.77;;
15077;SDS011;7638;49.760;8.646;2024-01-30T04:53:04;7.97;;;5.07;;
15077;SDS011;7638;49.760;8.646;2024-01-30T04:55:30;11.83;;;5.93;;
15077;SDS011;7638;49.760;8.646;2024-01-30T04:57:56;8.20;;;5.43;;
15077;SDS011;7638;49.760;8.646;2024-01-30T05:00:22;8.70;;;5.43;;
15077;SDS011;7638;49.760;8.646;2024-01-30T05:02:48;6.10;;;5.10;;
15077;SDS011;7638;49.760;8.646;2024-01-30T05:05:14;6.90;;;5.27;;
15077;SDS011;7638;49.760;8.646;2024-01-30T05:07:41;7.43;;;4.87;;
15077;SDS011;7638;49.760;8.646;2024-01-30T05:10:07;7.93;;;5.73;;
15077;SDS011;7638;49.760;8.646;2024-01-30T05:12:33;13.00;;;6.43;;
15077;SDS011;7638;49.760;8.646;2024-01-30T05:14:59;10.03;;;5.53;;
15077;SDS011;7638;49.760;8.646;2024-01-30T05:17:25;7.53;;;6.10;;
15077;SDS011;7638;49.760;8.646;2024-01-30T05:19:51;8.17;;;6.00;;
15077;SDS011;7638;49.760;8.646;2024-01-30T05:22:17;9.10;;;6.27;;
15077;SDS011;7638;49.760;8.646;2024-01-30T05:24:43;9.17;;;5.47;;
15077;SDS011;7638;49.760;8.646;2024-01-30T05:27:10;7.80;;;5.87;;
15077;SDS011;7638;49.760;8.646;2024-01-30T05:29:38;10.80;;;6.00;;
15077;SDS011;7638;49.760;8.646;2024-01-30T05:32:04;8.83;;;6.07;;
15077;SDS011;7638;49.760;8.646;2024-01-30T05:34:31;7.33;;;5.97;;
15077;SDS011;7638;49.760;8.646;2024-01-30T05:36:56;9.70;;;6.33;;
15077;SDS011;7638;49.760;8.646;2024-01-30T05:39:22;8.83;;;5.70;;
15077;SDS011;7638;49.760;8.646;2024-01-30T05:41:48;10.13;;;5.90;;
15077;SDS011;7638;49.760;8.646;2024-01-30T05:44:14;12.83;;;5.53;;
15077;SDS011;7638;49.760;8.646;2024-01-30T05:46:40;11.43;;;6.73;;
15077;SDS011;7638;49.760;8.646;2024-01-30T05:49:06;9.03;;;6.07;;
15077;SDS011;7638;49.760;8.646;2024-01-30T05:51:32;9.00;;;6.17;;
15077;SDS011;7638;49.760;8.646;2024-01-30T05:53:58;10.30;;;5.23;;
15077;SDS011;7638;49.760;8.646;2024-01-30T05:56:24;10.47;;;6.53;;
15077;SDS011;7638;49.760;8.646;2024-01-30T05:58:50;11.37;;;6.60;;
15077;SDS011;7638;49.760;8.646;2024-01-30T06:01:16;9.50;;;6.27;;
15077;SDS011;7638;49.760;8.646;2024-01-30T06:03:42;10.30;;;6.10;;
15077;SDS011;7638;49.760;8.646;2024-01-30T06:06:09;7.97;;;6.53;;
15077;SDS011;7638;49.760;8.646;2024-01-30T06:08:35;16.13;;;7.27;;
15077;SDS011;7638;49.760;8.646;2024-01-30T06:11:00;8.60;;;6.90;;
15077;SDS011;7638;49.760;8.646;2024-01-30T06:13:26;10.20;;;6.87;;
15077;SDS011;7638;49.760;8.646;2024-01-30T06:15:52;10.30;;;7.07;;
15077;SDS011;7638;49.760;8.646;2024-01-30T06:18:18;13.43;;;7.50;;
15077;SDS011;7638;49.760;8.646;2024-01-30T06:20:45;11.33;;;6.90;;
15077;SDS011;7638;49.760;8.646;2024-01-30T06:23:11;14.13;;;8.13;;
15077;SDS011;7638;49.760;8.646;2024-01-30T06:25:38;13.57;;;7.07;;
15077;SDS011;7638;49.760;8.646;2024-01-30T06:28:04;13.93;;;7.80;;
15077;SDS011;7638;49.760;8.646;2024-01-30T06:30:30;9.87;;;6.43;;
15077;SDS011;7638;49.760;8.646;2024-01-30T06:32:56;13.90;;;7.13;;
15077;SDS011;7638;49.760;8.646;2024-01-30T06:35:22;19.90;;;9.77;;
15077;SDS011;7638;49.760;8.646;2024-01-30T06:37:48;22.67;;;10.90;;
15077;SDS011;7638;49.760;8.646;2024-01-30T06:40:14;27.10;;;14.53;;
15077;SDS011;7638;49.760;8.646;2024-01-30T06:42:39;24.13;;;13.07;;
15077;SDS011;7638;49.760;8.646;2024-01-30T06:45:06;15.50;;;8.70;;
15077;SDS011;7638;49.760;8.646;2024-01-30T06:47:33;11.23;;;7.20;;
15077;SDS011;7638;49.760;8.646;2024-01-30T06:49:59;12.80;;;7.57;;
15077;SDS011;7638;49.760;8.646;2024-01-30T06:52:25;10.53;;;7.53;;
15077;SDS011;7638;49.760;8.646;2024-01-30T06:54:50;12.43;;;7.23;;
15077;SDS011;7638;49.760;8.646;2024-01-30T06:57:16;14.83;;;8.53;;
15077;SDS011;7638;49.760;8.646;2024-01-30T06:59:42;16.33;;;8.67;;
15077;SDS011;7638;49.760;8.646;2024-01-30T07:02:11;18.63;;;8.57;;
15077;SDS011;7638;49.760;8.646;2024-01-30T07:04:37;15.13;;;9.13;;
15077;SDS011;7638;49.760;8.646;2024-01-30T07:07:05;12.83;;;8.80;;
15077;SDS011;7638;49.760;8.646;2024-01-30T07:09:31;13.47;;;8.17;;
15077;SDS011;7638;49.760;8.646;2024-01-30T07:11:57;11.73;;;9.00;;
15077;SDS011;7638;49.760;8.646;2024-01-30T07:14:23;16.00;;;8.63;;
15077;SDS011;7638;49.760;8.646;2024-01-30T07:16:49;13.53;;;9.13;;
15077;SDS011;7638;49.760;8.646;2024-01-30T07:19:15;14.27;;;8.23;;
15077;SDS011;7638;49.760;8.646;2024-01-30T07:21:41;15.43;;;8.40;;
15077;SDS011;7638;49.760;8.646;2024-01-30T07:24:07;17.20;;;9.60;;
15077;SDS011;7638;49.760;8.646;2024-01-30T07:26:33;13.93;;;8.40;;
15077;SDS011;7638;49.760;8.646;2024-01-30T07:29:00;11.93;;;7.57;;
15077;SDS011;7638;49.760;8.646;2024-01-30T07:31:26;10.97;;;7.80;;
15077;SDS011;7638;49.760;8.646;2024-01-30T07:33:52;12.80;;;7.90;;
15077;SDS011;7638;49.760;8.646;2024-01-30T07:36:19;11.83;;;8.13;;
15077;SDS011;7638;49.760;8.646;2024-01-30T07:38:45;11.87;;;7.47;;
15077;SDS011;7638;49.760;8.646;2024-01-30T07:41:11;14.20;;;7.90;;
15077;SDS011;7638;49.760;8.646;2024-01-30T07:43:40;10.57;;;7.63;;
15077;SDS011;7638;49.760;8.646;2024-01-30T07:46:06;12.20;;;8.73;;
15077;SDS011;7638;49.760;8.646;2024-01-30T07:48:33;16.60;;;9.47;;
15077;SDS011;7638;49.760;8.646;2024-01-30T07:50:59;10.67;;;8.33;;
15077;SDS011;7638;49.760;8.646;2024-01-30T07:53:25;13.60;;;9.23;;
15077;SDS011;7638;49.760;8.646;2024-01-30T07:55:52;13.97;;;10.33;;
15077;SDS011;7638;49.760;8.646;2024-01-30T07:58:18;21.03;;;10.73;;
15077;SDS011;7638;49.760;8.646;2024-01-30T08:00:44;19.40;;;10.40;;
15077;SDS011;7638;49.760;8.646;2024-01-30T08:03:10;21.23;;;12.10;;
15077;SDS011;7638;49.760;8.646;2024-01-30T08:05:36;15.33;;;10.40;;
15077;SDS011;7638;49.760;8.646;2024-01-30T08:08:04;17.90;;;10.20;;
15077;SDS011;7638;49.760;8.646;2024-01-30T08:10:30;18.47;;;11.43;;
15077;SDS011;7638;49.760;8.646;2024-01-30T08:12:56;14.63;;;10.97;;
15077;SDS011;7638;49.760;8.646;2024-01-30T08:15:22;15.50;;;10.80;;
15077;SDS011;7638;49.760;8.646;2024-01-30T08:17:48;13.60;;;9.33;;
15077;SDS011;7638;49.760;8.646;2024-01-30T08:20:13;15.50;;;10.03;;
15077;SDS011;7638;49.760;8.646;2024-01-30T08:22:39;15.63;;;9.87;;
15077;SDS011;7638;49.760;8.646;2024-01-30T08:25:06;14.70;;;10.10;;
15077;SDS011;7638;49.760;8.646;2024-01-30T08:27:32;14.87;;;10.43;;
15077;SDS011;7638;49.760;8.646;2024-01-30T08:30:00;19.17;;;11.37;;
15077;SDS011;7638;49.760;8.646;2024-01-30T08:32:26;13.17;;;9.57;;
15077;SDS011;7638;49.760;8.646;2024-01-30T08:34:52;13.27;;;8.70;;
15077;SDS011;7638;49.760;8.646;2024-01-30T08:37:18;13.23;;;9.20;;
15077;SDS011;7638;49.760;8.646;2024-01-30T08:39:44;15.90;;;9.50;;
15077;SDS011;7638;49.760;8.646;2024-01-30T08:42:10;18.63;;;11.20;;
15077;SDS011;7638;49.760;8.646;2024-01-30T08:44:36;16.27;;;10.93;;
15077;SDS011;7638;49.760;8.646;2024-01-30T08:47:03;21.13;;;10.73;;
15077;SDS011;7638;49.760;8.646;2024-01-30T08:49:29;17.33;;;9.90;;
15077;SDS011;7638;49.760;8.646;2024-01-30T08:51:56;17.27;;;11.37;;
15077;SDS011;7638;49.760;8.646;2024-01-30T08:54:23;17.60;;;11.10;;
15077;SDS011;7638;49.760;8.646;2024-01-30T08:56:49;18.13;;;9.60;;
15077;SDS011;7638;49.760;8.646;2024-01-30T08:59:15;14.80;;;10.37;;
15077;SDS011;7638;49.760;8.646;2024-01-30T09:01:41;11.40;;;8.80;;
15077;SDS011;7638;49.760;8.646;2024-01-30T09:04:07;9.50;;;7.80;;
15077;SDS011;7638;49.760;8.646;2024-01-30T09:06:32;10.73;;;8.10;;
15077;SDS011;7638;49.760;8.646;2024-01-30T09:08:58;12.77;;;8.37;;
15077;SDS011;7638;49.760;8.646;2024-01-30T09:11:24;12.07;;;6.77;;
15077;SDS011;7638;49.760;8.646;2024-01-30T09:13:50;15.67;;;6.13;;
15077;SDS011;7638;49.760;8.646;2024-01-30T09:16:16;12.33;;;8.57;;
15077;SDS011;7638;49.760;8.646;2024-01-30T09:18:42;15.30;;;10.10;;
15077;SDS011;7638;49.760;8.646;2024-01-30T09:21:09;16.07;;;11.23;;
15077;SDS011;7638;49.760;8.646;2024-01-30T09:23:35;14.80;;;10.33;;
15077;SDS011;7638;49.760;8.646;2024-01-30T09:26:01;16.27;;;10.17;;
15077;SDS011;7638;49.760;8.646;2024-01-30T09:28:28;14.07;;;9.17;;
15077;SDS011;7638;49.760;8.646;2024-01-30T09:30:54;15.60;;;9.43;;
15077;SDS011;7638;49.760;8.646;2024-01-30T09:33:20;15.43;;;10.33;;
15077;SDS011;7638;49.760;8.646;2024-01-30T09:35:46;11.47;;;9.10;;
15077;SDS011;7638;49.760;8.646;2024-01-30T09:38:12;13.20;;;9.43;;
15077;SDS011;7638;49.760;8.646;2024-01-30T09:40:38;14.00;;;10.17;;
15077;SDS011;7638;49.760;8.646;2024-01-30T09:43:04;13.17;;;9.33;;
15077;SDS011;7638;49.760;8.646;2024-01-30T09:45:30;13.30;;;10.07;;
15077;SDS011;7638;49.760;8.646;2024-01-30T09:47:58;14.10;;;9.30;;
15077;SDS011;7638;49.760;8.646;2024-01-30T09:50:24;15.70;;;10.47;;
15077;SDS011;7638;49.760;8.646;2024-01-30T09:52:50;16.40;;;9.50;;
15077;SDS011;7638;49.760;8.646;2024-01-30T09:55:17;13.97;;;9.27;;
15077;SDS011;7638;49.760;8.646;2024-01-30T09:57:43;16.60;;;10.87;;
15077;SDS011;7638;49.760;8.646;2024-01-30T10:00:09;14.30;;;10.43;;
15077;SDS011;7638;49.760;8.646;2024-01-30T10:02:35;15.97;;;10.33;;
15077;SDS011;7638;49.760;8.646;2024-01-30T10:05:01;12.33;;;8.93;;
15077;SDS011;7638;49.760;8.646;2024-01-30T10:07:28;12.10;;;9.37;;
15077;SDS011;7638;49.760;8.646;2024-01-30T10:09:55;11.17;;;8.17;;
15077;SDS011;7638;49.760;8.646;2024-01-30T10:12:21;10.87;;;7.50;;
15077;SDS011;7638;49.760;8.646;2024-01-30T10:14:47;10.50;;;7.70;;
15077;SDS011;7638;49.760;8.646;2024-01-30T10:17:13;16.43;;;8.10;;
15077;SDS011;7638;49.760;8.646;2024-01-30T10:19:40;10.50;;;6.93;;
15077;SDS011;7638;49.760;8.646;2024-01-30T10:22:06;12.63;;;7.83;;
15077;SDS011;7638;49.760;8.646;2024-01-30T10:24:36;9.70;;;7.50;;
15077;SDS011;7638;49.760;8.646;2024-01-30T10:27:02;11.40;;;8.17;;
15077;SDS011;7638;49.760;8.646;2024-01-30T10:29:28;12.33;;;7.20;;
15077;SDS011;7638;49.760;8.646;2024-01-30T10:32:03;9.53;;;7.07;;
15077;SDS011;7638;49.760;8.646;2024-01-30T10:34:30;9.80;;;6.60;;
15077;SDS011;7638;49.760;8.646;2024-01-30T10:37:00;9.27;;;6.00;;
15077;SDS011;7638;49.760;8.646;2024-01-30T10:39:29;9.60;;;6.87;;
15077;SDS011;7638;49.760;8.646;2024-01-30T10:41:56;10.40;;;6.97;;
15077;SDS011;7638;49.760;8.646;2024-01-30T10:44:25;13.40;;;7.50;;
15077;SDS011;7638;49.760;8.646;2024-01-30T10:46:56;10.33;;;5.87;;
15077;SDS011;7638;49.760;8.646;2024-01-30T10:49:22;10.37;;;7.13;;
15077;SDS011;7638;49.760;8.646;2024-01-30T10:51:49;9.97;;;7.03;;
15077;SDS011;7638;49.760;8.646;2024-01-30T10:54:16;8.20;;;6.57;;
15077;SDS011;7638;49.760;8.646;2024-01-30T10:56:43;12.43;;;5.87;;
15077;SDS011;7638;49.760;8.646;2024-01-30T10:59:09;7.70;;;4.97;;
15077;SDS011;7638;49.760;8.646;2024-01-30T11:01:35;6.73;;;5.23;;
15077;SDS011;7638;49.760;8.646;2024-01-30T11:04:02;5.17;;;3.53;;
15077;SDS011;7638;49.760;8.646;2024-01-30T11:06:27;4.57;;;4.07;;
15077;SDS011;7638;49.760;8.646;2024-01-30T11:09:00;4.37;;;2.83;;
15077;SDS011;7638;49.760;8.646;2024-01-30T11:11:28;6.77;;;3.97;;
15077;SDS011;7638;49.760;8.646;2024-01-30T11:13:54;4.67;;;4.17;;
15077;SDS011;7638;49.760;8.646;2024-01-30T11:16:20;4.50;;;3.77;;
15077;SDS011;7638;49.760;8.646;2024-01-30T11:18:50;6.27;;;4.03;;
15077;SDS011;7638;49.760;8.646;2024-01-30T11:21:16;9.97;;;4.30;;
15077;SDS011;7638;49.760;8.646;2024-01-30T11:23:42;7.27;;;4.10;;
15077;SDS011;7638;49.760;8.646;2024-01-30T11:26:11;7.10;;;4.30;;
15077;SDS011;7638;49.760;8.646;2024-01-30T11:28:37;5.17;;;3.70;;
15077;SDS011;7638;49.760;8.646;2024-01-30T11:31:06;6.87;;;4.03;;
15077;SDS011;7638;49.760;8.646;2024-01-30T11:33:33;6.80;;;3.47;;
15077;SDS011;7638;49.760;8.646;2024-01-30T11:35:59;4.97;;;3.57;;
15077;SDS011;7638;49.760;8.646;2024-01-30T11:38:26;5.07;;;3.73;;
15077;SDS011;7638;49.760;8.646;2024-01-30T11:40:53;4.27;;;3.67;;
15077;SDS011;7638;49.760;8.646;2024-01-30T11:43:19;6.10;;;3.60;;
15077;SDS011;7638;49.760;8.646;2024-01-30T11:45:45;7.43;;;3.70;;
15077;SDS011;7638;49.760;8.646;2024-01-30T11:48:11;4.90;;;3.77;;
15077;SDS011;7638;49.760;8.646;2024-01-30T11:50:38;6.43;;;3.23;;
15077;SDS011;7638;49.760;8.646;2024-01-30T11:53:04;6.77;;;3.53;;
15077;SDS011;7638;49.760;8.646;2024-01-30T11:55:30;6.80;;;3.50;;
15077;SDS011;7638;49.760;8.646;2024-01-30T11:57:57;6.27;;;3.37;;
15077;SDS011;7638;49.760;8.646;2024-01-30T12:00:23;9.57;;;4.20;;
15077;SDS011;7638;49.760;8.646;2024-01-30T12:02:49;6.57;;;3.90;;
15077;SDS011;7638;49.760;8.646;2024-01-30T12:05:15;4.63;;;4.13;;
15077;SDS011;7638;49.760;8.646;2024-01-30T12:07:44;8.23;;;4.57;;
15077;SDS011;7638;49.760;8.646;2024-01-30T12:10:12;9.53;;;3.97;;
15077;SDS011;7638;49.760;8.646;2024-01-30T12:12:38;4.63;;;4.10;;
15077;SDS011;7638;49.760;8.646;2024-01-30T12:15:05;6.07;;;4.40;;
15077;SDS011;7638;49.760;8.646;2024-01-30T12:17:32;7.83;;;3.80;;
15077;SDS011;7638;49.760;8.646;2024-01-30T12:20:12;6.50;;;4.20;;
15077;SDS011;7638;49.760;8.646;2024-01-30T12:22:39;7.57;;;4.17;;
15077;SDS011;7638;49.760;8.646;2024-01-30T12:25:08;7.80;;;4.40;;
15077;SDS011;7638;49.760;8.646;2024-01-30T12:27:35;5.63;;;4.30;;
15077;SDS011;7638;49.760;8.646;2024-01-30T12:30:01;8.50;;;4.20;;
15077;SDS011;7638;49.760;8.646;2024-01-30T12:32:27;7.67;;;3.83;;
15077;SDS011;7638;49.760;8.646;2024-01-30T12:34:54;6.53;;;3.60;;
15077;SDS011;7638;49.760;8.646;2024-01-30T12:37:21;6.97;;;4.20;;
15077;SDS011;7638;49.760;8.646;2024-01-30T12:39:49;8.97;;;4.57;;
15077;SDS011;7638;49.760;8.646;2024-01-30T12:42:15;7.20;;;3.67;;
15077;SDS011;7638;49.760;8.646;2024-01-30T12:44:41;7.53;;;4.17;;
15077;SDS011;7638;49.760;8.646;2024-01-30T12:47:08;5.93;;;3.90;;
15077;SDS011;7638;49.760;8.646;2024-01-30T12:49:35;5.00;;;3.53;;
15077;SDS011;7638;49.760;8.646;2024-01-30T12:52:01;5.30;;;3.87;;
15077;SDS011;7638;49.760;8.646;2024-01-30T12:54:27;3.90;;;3.00;;
15077;SDS011;7638;49.760;8.646;2024-01-30T12:56:53;5.17;;;3.67;;
15077;SDS011;7638;49.760;8.646;2024-01-30T12:59:21;6.67;;;4.40;;
15077;SDS011;7638;49.760;8.646;2024-01-30T13:01:47;6.27;;;3.80;;
15077;SDS011;7638;49.760;8.646;2024-01-30T13:04:13;6.60;;;4.60;;
15077;SDS011;7638;49.760;8.646;2024-01-30T13:06:40;5.77;;;4.30;;
15077;SDS011;7638;49.760;8.646;2024-01-30T13:09:06;7.17;;;4.67;;
15077;SDS011;7638;49.760;8.646;2024-01-30T13:11:32;7.83;;;5.00;;
15077;SDS011;7638;49.760;8.646;2024-01-30T13:13:59;6.60;;;4.10;;
15077;SDS011;7638;49.760;8.646;2024-01-30T13:16:25;6.47;;;4.27;;
15077;SDS011;7638;49.760;8.646;2024-01-30T13:18:51;7.70;;;4.10;;
15077;SDS011;7638;49.760;8.646;2024-01-30T13:21:17;5.90;;;4.43;;
15077;SDS011;7638;49.760;8.646;2024-01-30T13:23:43;4.60;;;4.00;;
15077;SDS011;7638;49.760;8.646;2024-01-30T13:26:08;5.43;;;3.73;;
15077;SDS011;7638;49.760;8.646;2024-01-30T13:28:34;5.87;;;4.03;;
15077;SDS011;7638;49.760;8.646;2024-01-30T13:31:00;5.43;;;4.23;;
15077;SDS011;7638;49.760;8.646;2024-01-30T13:33:26;7.40;;;4.63;;
15077;SDS011;7638;49.760;8.646;2024-01-30T13:35:52;6.27;;;3.73;;
15077;SDS011;7638;49.760;8.646;2024-01-30T13:38:18;4.73;;;3.70;;
15077;SDS011;7638;49.760;8.646;2024-01-30T13:40:44;7.03;;;4.27;;
15077;SDS011;7638;49.760;8.646;2024-01-30T13:43:10;6.37;;;4.23;;
15077;SDS011;7638;49.760;8.646;2024-01-30T13:45:37;7.33;;;4.37;;
15077;SDS011;7638;49.760;8.646;2024-01-30T13:48:03;6.73;;;4.60;;
15077;SDS011;7638;49.760;8.646;2024-01-30T13:50:29;8.03;;;4.53;;
15077;SDS011;7638;49.760;8.646;2024-01-30T13:52:55;9.17;;;4.30;;
15077;SDS011;7638;49.760;8.646;2024-01-30T13:55:21;6.07;;;4.17;;
15077;SDS011;7638;49.760;8.646;2024-01-30T13:57:47;6.40;;;5.20;;
15077;SDS011;7638;49.760;8.646;2024-01-30T14:00:13;8.37;;;4.73;;
15077;SDS011;7638;49.760;8.646;2024-01-30T14:02:41;10.93;;;4.80;;
15077;SDS011;7638;49.760;8.646;2024-01-30T14:05:07;7.70;;;4.77;;
15077;SDS011;7638;49.760;8.646;2024-01-30T14:07:33;8.73;;;4.57;;
15077;SDS011;7638;49.760;8.646;2024-01-30T14:09:59;8.20;;;4.80;;
15077;SDS011;7638;49.760;8.646;2024-01-30T14:12:25;6.03;;;4.63;;
15077;SDS011;7638;49.760;8.646;2024-01-30T14:14:51;11.13;;;5.20;;
15077;SDS011;7638;49.760;8.646;2024-01-30T14:17:17;8.27;;;5.27;;
15077;SDS011;7638;49.760;8.646;2024-01-30T14:19:43;8.37;;;4.50;;
15077;SDS011;7638;49.760;8.646;2024-01-30T14:22:09;12.97;;;5.30;;
15077;SDS011;7638;49.760;8.646;2024-01-30T14:24:35;13.97;;;5.10;;
15077;SDS011;7638;49.760;8.646;2024-01-30T14:27:02;7.53;;;3.97;;
15077;SDS011;7638;49.760;8.646;2024-01-30T14:29:28;6.30;;;4.43;;
15077;SDS011;7638;49.760;8.646;2024-01-30T14:31:54;5.87;;;4.50;;
15077;SDS011;7638;49.760;8.646;2024-01-30T14:34:20;8.13;;;4.70;;
15077;SDS011;7638;49.760;8.646;2024-01-30T14:36:46;9.00;;;4.53;;
15077;SDS011;7638;49.760;8.646;2024-01-30T14:39:12;5.57;;;3.70;;
15077;SDS011;7638;49.760;8.646;2024-01-30T14:41:38;5.73;;;4.00;;
15077;SDS011;7638;49.760;8.646;2024-01-30T14:44:04;5.90;;;4.13;;
15077;SDS011;7638;49.760;8.646;2024-01-30T14:46:30;6.83;;;4.83;;
15077;SDS011;7638;49.760;8.646;2024-01-30T14:48:56;7.00;;;4.53;;